sensor_id;sensor_type;location;lat;lon;timestamp;pressure;altitude;pressure_sealevel;temperature
15845;BMP180;50807;52.436;13.346;2024-03-17T00:00:02;101682.00;;;9.50
15845;BMP180;50807;52.436;13.346;2024-03-17T00:00:33;101696.00;;;9.40
15845;BMP180;50807;52.436;13.346;2024-03-17T00:01:04;101695.00;;;9.50
15845;BMP180;50807;52.436;13.346;2024-03-17T00:01:35;101697.00;;;9.50
15845;BMP180;50807;52.436;13.346;2024-03-17T00:02:06;101699.00;;;9.60
15845;BMP180;50807;52.436;13.346;2024-03-17T00:02:37;101707.00;;;9.60
15845;BMP180;50807;52.436;13.346;2024-03-17T00:03:09;101699.00;;;9.40
15845;BMP180;50807;52.436;13.346;2024-03-17T00:03:39;101706.00;;;9.50
15845;BMP180;50807;52.436;13.346;2024-03-17T00:04:10;101691.00;;;9.50
15845;BMP180;50807;52.436;13.346;2024-03-17T00:04:41;101704.00;;;9.50
15845;BMP180;50807;52.436;13.346;2024-03-17T00:05:13;101710.00;;;9.50
15845;BMP180;50807;52.436;13.346;2024-03-17T00:05:44;101692.00;;;9.50
15845;BMP180;50807;52.436;13.346;2024-03-17T00:06:15;101703.00;;;9.40
15845;BMP180;50807;52.436;13.346;2024-03-17T00:06:47;101708.00;;;9.50
15845;BMP180;50807;52.436;13.346;2024-03-17T00:07:18;101703.00;;;9.50
15845;BMP180;50807;52.436;13.346;2024-03-17T00:07:49;101696.00;;;9.50
15845;BMP180;50807;52.436;13.346;2024-03-17T00:08:20;101698.00;;;9.50
15845;BMP180;50807;52.436;13.346;2024-03-17T00:08:51;101701.00;;;9.50
15845;BMP180;50807;52.436;13.346;2024-03-17T00:09:24;101709.00;;;9.50
15845;BMP180;50807;52.436;13.346;2024-03-17T00:09:55;101701.00;;;9.40
15845;BMP180;50807;52.436;13.346;2024-03-17T00:10:26;101704.00;;;9.40
15845;BMP180;50807;52.436;13.346;2024-03-17T00:10:57;101698.00;;;9.40
15845;BMP180;50807;52.436;13.346;2024-03-17T00:11:28;101707.00;;;9.30
15845;BMP180;50807;52.436;13.346;2024-03-17T00:11:58;101707.00;;;9.40
15845;BMP180;50807;52.436;13.346;2024-03-17T00:12:31;101705.00;;;9.30
15845;BMP180;50807;52.436;13.346;2024-03-17T00:13:02;101702.00;;;9.40
15845;BMP180;50807;52.436;13.346;2024-03-17T00:13:33;101706.00;;;9.40
15845;BMP180;50807;52.436;13.346;2024-03-17T00:14:04;101690.00;;;9.30
15845;BMP180;50807;52.436;13.346;2024-03-17T00:14:35;101697.00;;;9.40
15845;BMP180;50807;52.436;13.346;2024-03-17T00:15:08;101706.00;;;9.40
15845;BMP180;50807;52.436;13.346;2024-03-17T00:15:41;101696.00;;;9.40
15845;BMP180;50807;52.436;13.346;2024-03-17T00:16:11;101707.00;;;9.40
15845;BMP180;50807;52.436;13.346;2024-03-17T00:16:43;101707.00;;;9.40
15845;BMP180;50807;52.436;13.346;2024-03-17T00:17:14;101710.00;;;9.50
15845;BMP180;50807;52.436;13.346;2024-03-17T00:17:45;101697.00;;;9.40
15845;BMP180;50807;52.436;13.346;2024-03-17T00:18:17;101700.00;;;9.40
15845;BMP180;50807;52.436;13.346;2024-03-17T00:18:48;101700.00;;;9.40
15845;BMP180;50807;52.436;13.346;2024-03-17T00:19:20;101691.00;;;9.40
15845;BMP180;50807;52.436;13.346;2024-03-17T00:19:52;101694.00;;;9.40
15845;BMP180;50807;52.436;13.346;2024-03-17T00:20:23;101699.00;;;9.40
15845;BMP180;50807;52.436;13.346;2024-03-17T00:20:55;101703.00;;;9.30
15845;BMP180;50807;52.436;13.346;2024-03-17T00:21:26;101700.00;;;9.30
15845;BMP180;50807;52.436;13.346;2024-03-17T00:21:57;101699.00;;;9.40
15845;BMP180;50807;52.436;13.346;2024-03-17T00:22:29;101691.00;;;9.40
15845;BMP180;50807;52.436;13.346;2024-03-17T00:22:59;101702.00;;;9.40
15845;BMP180;50807;52.436;13.346;2024-03-17T00:23:30;101697.00;;;9.30
15845;BMP180;50807;52.436;13.346;2024-03-17T00:24:01;101694.00;;;9.20
15845;BMP180;50807;52.436;13.346;2024-03-17T00:24:33;101691.00;;;9.30
15845;BMP180;50807;52.436;13.346;2024-03-17T00:25:06;101686.00;;;9.30
15845;BMP180;50807;52.436;13.346;2024-03-17T00:25:38;101700.00;;;9.40
15845;BMP180;50807;52.436;13.346;2024-03-17T00:26:10;101689.00;;;9.40
15845;BMP180;50807;52.436;13.346;2024-03-17T00:26:41;101706.00;;;9.20
15845;BMP180;50807;52.436;13.346;2024-03-17T00:27:11;101699.00;;;9.30
15845;BMP180;50807;52.436;13.346;2024-03-17T00:27:45;101704.00;;;9.30
15845;BMP180;50807;52.436;13.346;2024-03-17T00:28:18;101699.00;;;9.30
15845;BMP180;50807;52.436;13.346;2024-03-17T00:28:51;101700.00;;;9.30
15845;BMP180;50807;52.436;13.346;2024-03-17T00:29:23;101697.00;;;9.40
15845;BMP180;50807;52.436;13.346;2024-03-17T00:29:53;101705.00;;;9.20
15845;BMP180;50807;52.436;13.346;2024-03-17T00:30:24;101701.00;;;9.30
15845;BMP180;50807;52.436;13.346;2024-03-17T00:30:55;101695.00;;;9.30
15845;BMP180;50807;52.436;13.346;2024-03-17T00:31:26;101698.00;;;9.30
15845;BMP180;50807;52.436;13.346;2024-03-17T00:31:57;101698.00;;;9.30
15845;BMP180;50807;52.436;13.346;2024-03-17T00:32:30;101701.00;;;9.30
15845;BMP180;50807;52.436;13.346;2024-03-17T00:33:00;101700.00;;;9.30
15845;BMP180;50807;52.436;13.346;2024-03-17T00:33:31;101703.00;;;9.30
15845;BMP180;50807;52.436;13.346;2024-03-17T00:34:02;101705.00;;;9.30
15845;BMP180;50807;52.436;13.346;2024-03-17T00:34:34;101699.00;;;9.30
15845;BMP180;50807;52.436;13.346;2024-03-17T00:35:07;101703.00;;;9.10
15845;BMP180;50807;52.436;13.346;2024-03-17T00:35:38;101713.00;;;9.20
15845;BMP180;50807;52.436;13.346;2024-03-17T00:36:10;101707.00;;;9.30
15845;BMP180;50807;52.436;13.346;2024-03-17T00:36:40;101708.00;;;9.20
15845;BMP180;50807;52.436;13.346;2024-03-17T00:37:11;101708.00;;;9.30
15845;BMP180;50807;52.436;13.346;2024-03-17T00:37:42;101695.00;;;9.20
15845;BMP180;50807;52.436;13.346;2024-03-17T00:38:13;101718.00;;;9.10
15845;BMP180;50807;52.436;13.346;2024-03-17T00:38:43;101714.00;;;9.20
15845;BMP180;50807;52.436;13.346;2024-03-17T00:39:14;101715.00;;;9.20
15845;BMP180;50807;52.436;13.346;2024-03-17T00:39:45;101722.00;;;9.20
15845;BMP180;50807;52.436;13.346;2024-03-17T00:40:17;101713.00;;;9.20
15845;BMP180;50807;52.436;13.346;2024-03-17T00:40:48;101712.00;;;9.10
15845;BMP180;50807;52.436;13.346;2024-03-17T00:41:19;101713.00;;;9.20
15845;BMP180;50807;52.436;13.346;2024-03-17T00:41:51;101718.00;;;9.20
15845;BMP180;50807;52.436;13.346;2024-03-17T00:42:23;101714.00;;;9.10
15845;BMP180;50807;52.436;13.346;2024-03-17T00:42:55;101716.00;;;9.20
15845;BMP180;50807;52.436;13.346;2024-03-17T00:43:26;101722.00;;;9.20
15845;BMP180;50807;52.436;13.346;2024-03-17T00:43:56;101724.00;;;9.20
15845;BMP180;50807;52.436;13.346;2024-03-17T00:44:27;101719.00;;;9.20
15845;BMP180;50807;52.436;13.346;2024-03-17T00:44:59;101711.00;;;9.10
15845;BMP180;50807;52.436;13.346;2024-03-17T00:45:32;101713.00;;;9.10
15845;BMP180;50807;52.436;13.346;2024-03-17T00:46:03;101716.00;;;9.20
15845;BMP180;50807;52.436;13.346;2024-03-17T00:46:34;101725.00;;;9.20
15845;BMP180;50807;52.436;13.346;2024-03-17T00:47:05;101710.00;;;9.00
15845;BMP180;50807;52.436;13.346;2024-03-17T00:47:36;101726.00;;;9.10
15845;BMP180;50807;52.436;13.346;2024-03-17T00:48:07;101718.00;;;9.20
15845;BMP180;50807;52.436;13.346;2024-03-17T00:48:39;101715.00;;;9.20
15845;BMP180;50807;52.436;13.346;2024-03-17T00:49:10;101713.00;;;9.00
15845;BMP180;50807;52.436;13.346;2024-03-17T00:49:41;101718.00;;;9.10
15845;BMP180;50807;52.436;13.346;2024-03-17T00:50:11;101723.00;;;9.20
15845;BMP180;50807;52.436;13.346;2024-03-17T00:50:43;101717.00;;;9.20
15845;BMP180;50807;52.436;13.346;2024-03-17T00:51:15;101723.00;;;9.20
15845;BMP180;50807;52.436;13.346;2024-03-17T00:51:46;101715.00;;;9.20
15845;BMP180;50807;52.436;13.346;2024-03-17T00:52:20;101717.00;;;9.10
15845;BMP180;50807;52.436;13.346;2024-03-17T00:52:51;101722.00;;;9.20
15845;BMP180;50807;52.436;13.346;2024-03-17T00:53:22;101721.00;;;9.20
15845;BMP180;50807;52.436;13.346;2024-03-17T00:53:53;101721.00;;;9.20
15845;BMP180;50807;52.436;13.346;2024-03-17T00:54:24;101724.00;;;9.20
15845;BMP180;50807;52.436;13.346;2024-03-17T00:54:54;101718.00;;;9.20
15845;BMP180;50807;52.436;13.346;2024-03-17T00:55:25;101717.00;;;9.10
15845;BMP180;50807;52.436;13.346;2024-03-17T00:55:56;101717.00;;;9.10
15845;BMP180;50807;52.436;13.346;2024-03-17T00:56:28;101722.00;;;9.10
15845;BMP180;50807;52.436;13.346;2024-03-17T00:56:59;101710.00;;;9.10
15845;BMP180;50807;52.436;13.346;2024-03-17T00:57:30;101721.00;;;9.00
15845;BMP180;50807;52.436;13.346;2024-03-17T00:58:02;101711.00;;;9.00
15845;BMP180;50807;52.436;13.346;2024-03-17T00:58:33;101713.00;;;8.90
15845;BMP180;50807;52.436;13.346;2024-03-17T00:59:05;101710.00;;;9.00
15845;BMP180;50807;52.436;13.346;2024-03-17T00:59:36;101708.00;;;9.10
15845;BMP180;50807;52.436;13.346;2024-03-17T01:00:08;101708.00;;;9.10
15845;BMP180;50807;52.436;13.346;2024-03-17T01:00:40;101715.00;;;9.10
15845;BMP180;50807;52.436;13.346;2024-03-17T01:01:11;101721.00;;;9.10
15845;BMP180;50807;52.436;13.346;2024-03-17T01:01:42;101713.00;;;9.10
15845;BMP180;50807;52.436;13.346;2024-03-17T01:02:15;101718.00;;;9.10
15845;BMP180;50807;52.436;13.346;2024-03-17T01:02:47;101716.00;;;9.10
15845;BMP180;50807;52.436;13.346;2024-03-17T01:03:18;101718.00;;;8.90
15845;BMP180;50807;52.436;13.346;2024-03-17T01:03:49;101718.00;;;9.00
15845;BMP180;50807;52.436;13.346;2024-03-17T01:04:20;101717.00;;;8.90
15845;BMP180;50807;52.436;13.346;2024-03-17T01:04:51;101721.00;;;9.00
15845;BMP180;50807;52.436;13.346;2024-03-17T01:05:22;101719.00;;;9.00
15845;BMP180;50807;52.436;13.346;2024-03-17T01:05:54;101721.00;;;9.00
15845;BMP180;50807;52.436;13.346;2024-03-17T01:06:24;101714.00;;;9.00
15845;BMP180;50807;52.436;13.346;2024-03-17T01:06:55;101730.00;;;8.90
15845;BMP180;50807;52.436;13.346;2024-03-17T01:07:26;101720.00;;;9.00
15845;BMP180;50807;52.436;13.346;2024-03-17T01:07:57;101713.00;;;9.00
15845;BMP180;50807;52.436;13.346;2024-03-17T01:08:27;101720.00;;;8.90
15845;BMP180;50807;52.436;13.346;2024-03-17T01:09:00;101720.00;;;9.00
15845;BMP180;50807;52.436;13.346;2024-03-17T01:09:31;101719.00;;;9.00
15845;BMP180;50807;52.436;13.346;2024-03-17T01:10:01;101721.00;;;9.00
15845;BMP180;50807;52.436;13.346;2024-03-17T01:10:32;101721.00;;;9.00
15845;BMP180;50807;52.436;13.346;2024-03-17T01:11:03;101720.00;;;9.00
15845;BMP180;50807;52.436;13.346;2024-03-17T01:11:36;101721.00;;;9.00
15845;BMP180;50807;52.436;13.346;2024-03-17T01:12:07;101726.00;;;9.00
15845;BMP180;50807;52.436;13.346;2024-03-17T01:12:39;101723.00;;;9.00
15845;BMP180;50807;52.436;13.346;2024-03-17T01:13:11;101724.00;;;8.90
15845;BMP180;50807;52.436;13.346;2024-03-17T01:13:42;101720.00;;;9.00
15845;BMP180;50807;52.436;13.346;2024-03-17T01:14:13;101726.00;;;9.00
15845;BMP180;50807;52.436;13.346;2024-03-17T01:14:44;101723.00;;;9.00
15845;BMP180;50807;52.436;13.346;2024-03-17T01:15:14;101725.00;;;9.00
15845;BMP180;50807;52.436;13.346;2024-03-17T01:15:45;101724.00;;;9.00
15845;BMP180;50807;52.436;13.346;2024-03-17T01:16:16;101725.00;;;9.00
15845;BMP180;50807;52.436;13.346;2024-03-17T01:16:50;101724.00;;;9.00
15845;BMP180;50807;52.436;13.346;2024-03-17T01:17:21;101724.00;;;9.00
15845;BMP180;50807;52.436;13.346;2024-03-17T01:17:52;101716.00;;;9.00
15845;BMP180;50807;52.436;13.346;2024-03-17T01:18:22;101715.00;;;8.90
15845;BMP180;50807;52.436;13.346;2024-03-17T01:18:53;101727.00;;;9.00
15845;BMP180;50807;52.436;13.346;2024-03-17T01:19:24;101719.00;;;9.00
15845;BMP180;50807;52.436;13.346;2024-03-17T01:19:55;101718.00;;;9.00
15845;BMP180;50807;52.436;13.346;2024-03-17T01:20:27;101727.00;;;8.80
15845;BMP180;50807;52.436;13.346;2024-03-17T01:20:59;101729.00;;;8.90
15845;BMP180;50807;52.436;13.346;2024-03-17T01:21:30;101725.00;;;8.90
15845;BMP180;50807;52.436;13.346;2024-03-17T01:22:01;101718.00;;;8.90
15845;BMP180;50807;52.436;13.346;2024-03-17T01:22:32;101724.00;;;8.90
15845;BMP180;50807;52.436;13.346;2024-03-17T01:23:05;101725.00;;;8.80
15845;BMP180;50807;52.436;13.346;2024-03-17T01:23:35;101726.00;;;8.90
15845;BMP180;50807;52.436;13.346;2024-03-17T01:24:06;101723.00;;;8.90
15845;BMP180;50807;52.436;13.346;2024-03-17T01:24:37;101726.00;;;9.00
15845;BMP180;50807;52.436;13.346;2024-03-17T01:25:10;101724.00;;;8.90
15845;BMP180;50807;52.436;13.346;2024-03-17T01:25:42;101734.00;;;8.80
15845;BMP180;50807;52.436;13.346;2024-03-17T01:26:13;101723.00;;;8.90
15845;BMP180;50807;52.436;13.346;2024-03-17T01:26:44;101722.00;;;8.80
15845;BMP180;50807;52.436;13.346;2024-03-17T01:27:15;101731.00;;;8.80
15845;BMP180;50807;52.436;13.346;2024-03-17T01:27:46;101724.00;;;8.80
15845;BMP180;50807;52.436;13.346;2024-03-17T01:28:18;101716.00;;;8.90
15845;BMP180;50807;52.436;13.346;2024-03-17T01:28:50;101720.00;;;8.90
15845;BMP180;50807;52.436;13.346;2024-03-17T01:29:21;101723.00;;;8.90
15845;BMP180;50807;52.436;13.346;2024-03-17T01:29:51;101723.00;;;8.90
15845;BMP180;50807;52.436;13.346;2024-03-17T01:30:22;101722.00;;;8.90
15845;BMP180;50807;52.436;13.346;2024-03-17T01:30:53;101726.00;;;8.80
15845;BMP180;50807;52.436;13.346;2024-03-17T01:31:25;101718.00;;;8.90
15845;BMP180;50807;52.436;13.346;2024-03-17T01:31:56;101726.00;;;8.80
15845;BMP180;50807;52.436;13.346;2024-03-17T01:32:27;101723.00;;;8.90
15845;BMP180;50807;52.436;13.346;2024-03-17T01:32:58;101714.00;;;8.70
15845;BMP180;50807;52.436;13.346;2024-03-17T01:33:30;101730.00;;;8.80
15845;BMP180;50807;52.436;13.346;2024-03-17T01:34:01;101724.00;;;8.90
15845;BMP180;50807;52.436;13.346;2024-03-17T01:34:31;101724.00;;;8.90
15845;BMP180;50807;52.436;13.346;2024-03-17T01:35:03;101714.00;;;8.90
15845;BMP180;50807;52.436;13.346;2024-03-17T01:35:36;101714.00;;;8.90
15845;BMP180;50807;52.436;13.346;2024-03-17T01:36:07;101722.00;;;8.90
15845;BMP180;50807;52.436;13.346;2024-03-17T01:36:38;101728.00;;;8.90
15845;BMP180;50807;52.436;13.346;2024-03-17T01:37:09;101719.00;;;8.90
15845;BMP180;50807;52.436;13.346;2024-03-17T01:37:40;101715.00;;;8.90
15845;BMP180;50807;52.436;13.346;2024-03-17T01:38:10;101710.00;;;8.80
15845;BMP180;50807;52.436;13.346;2024-03-17T01:38:42;101719.00;;;8.70
15845;BMP180;50807;52.436;13.346;2024-03-17T01:39:13;101728.00;;;8.80
15845;BMP180;50807;52.436;13.346;2024-03-17T01:39:44;101722.00;;;8.80
15845;BMP180;50807;52.436;13.346;2024-03-17T01:40:14;101718.00;;;8.70
15845;BMP180;50807;52.436;13.346;2024-03-17T01:40:45;101722.00;;;8.80
15845;BMP180;50807;52.436;13.346;2024-03-17T01:41:16;101722.00;;;8.80
15845;BMP180;50807;52.436;13.346;2024-03-17T01:41:47;101715.00;;;8.70
15845;BMP180;50807;52.436;13.346;2024-03-17T01:42:18;101722.00;;;8.70
15845;BMP180;50807;52.436;13.346;2024-03-17T01:42:50;101716.00;;;8.60
15845;BMP180;50807;52.436;13.346;2024-03-17T01:43:22;101713.00;;;8.70
15845;BMP180;50807;52.436;13.346;2024-03-17T01:43:53;101705.00;;;8.80
15845;BMP180;50807;52.436;13.346;2024-03-17T01:44:27;101705.00;;;8.70
15845;BMP180;50807;52.436;13.346;2024-03-17T01:44:58;101721.00;;;8.80
15845;BMP180;50807;52.436;13.346;2024-03-17T01:45:30;101708.00;;;8.80
15845;BMP180;50807;52.436;13.346;2024-03-17T01:46:03;101719.00;;;8.80
15845;BMP180;50807;52.436;13.346;2024-03-17T01:46:34;101712.00;;;8.80
15845;BMP180;50807;52.436;13.346;2024-03-17T01:47:05;101714.00;;;8.80
15845;BMP180;50807;52.436;13.346;2024-03-17T01:47:39;101716.00;;;8.70
15845;BMP180;50807;52.436;13.346;2024-03-17T01:48:14;101711.00;;;8.60
15845;BMP180;50807;52.436;13.346;2024-03-17T01:48:45;101713.00;;;8.60
15845;BMP180;50807;52.436;13.346;2024-03-17T01:49:18;101703.00;;;8.70
15845;BMP180;50807;52.436;13.346;2024-03-17T01:49:51;101715.00;;;8.70
15845;BMP180;50807;52.436;13.346;2024-03-17T01:50:22;101708.00;;;8.60
15845;BMP180;50807;52.436;13.346;2024-03-17T01:50:56;101712.00;;;8.70
15845;BMP180;50807;52.436;13.346;2024-03-17T01:51:28;101705.00;;;8.60
15845;BMP180;50807;52.436;13.346;2024-03-17T01:51:59;101701.00;;;8.70
15845;BMP180;50807;52.436;13.346;2024-03-17T01:52:30;101717.00;;;8.70
15845;BMP180;50807;52.436;13.346;2024-03-17T01:53:04;101716.00;;;8.60
15845;BMP180;50807;52.436;13.346;2024-03-17T01:53:35;101701.00;;;8.70
15845;BMP180;50807;52.436;13.346;2024-03-17T01:54:08;101716.00;;;8.60
15845;BMP180;50807;52.436;13.346;2024-03-17T01:54:39;101711.00;;;8.70
15845;BMP180;50807;52.436;13.346;2024-03-17T01:55:10;101708.00;;;8.70
15845;BMP180;50807;52.436;13.346;2024-03-17T01:55:44;101712.00;;;8.60
15845;BMP180;50807;52.436;13.346;2024-03-17T01:56:17;101709.00;;;8.70
15845;BMP180;50807;52.436;13.346;2024-03-17T01:56:48;101712.00;;;8.60
15845;BMP180;50807;52.436;13.346;2024-03-17T01:57:19;101718.00;;;8.60
15845;BMP180;50807;52.436;13.346;2024-03-17T01:57:51;101713.00;;;8.60
15845;BMP180;50807;52.436;13.346;2024-03-17T01:58:27;101716.00;;;8.60
15845;BMP180;50807;52.436;13.346;2024-03-17T01:58:58;101714.00;;;8.70
15845;BMP180;50807;52.436;13.346;2024-03-17T01:59:29;101710.00;;;8.70
15845;BMP180;50807;52.436;13.346;2024-03-17T02:00:01;101711.00;;;8.70
15845;BMP180;50807;52.436;13.346;2024-03-17T02:00:32;101717.00;;;8.60
15845;BMP180;50807;52.436;13.346;2024-03-17T02:01:04;101711.00;;;8.60
15845;BMP180;50807;52.436;13.346;2024-03-17T02:01:35;101712.00;;;8.70
15845;BMP180;50807;52.436;13.346;2024-03-17T02:02:06;101719.00;;;8.60
15845;BMP180;50807;52.436;13.346;2024-03-17T02:02:38;101712.00;;;8.60
15845;BMP180;50807;52.436;13.346;2024-03-17T02:03:09;101713.00;;;8.60
15845;BMP180;50807;52.436;13.346;2024-03-17T02:03:40;101719.00;;;8.70
15845;BMP180;50807;52.436;13.346;2024-03-17T02:04:11;101716.00;;;8.50
15845;BMP180;50807;52.436;13.346;2024-03-17T02:04:42;101714.00;;;8.60
15845;BMP180;50807;52.436;13.346;2024-03-17T02:05:13;101716.00;;;8.50
15845;BMP180;50807;52.436;13.346;2024-03-17T02:05:44;101713.00;;;8.60
15845;BMP180;50807;52.436;13.346;2024-03-17T02:06:16;101714.00;;;8.60
15845;BMP180;50807;52.436;13.346;2024-03-17T02:06:47;101706.00;;;8.70
15845;BMP180;50807;52.436;13.346;2024-03-17T02:07:18;101713.00;;;8.70
15845;BMP180;50807;52.436;13.346;2024-03-17T02:07:48;101713.00;;;8.50
15845;BMP180;50807;52.436;13.346;2024-03-17T02:08:20;101699.00;;;8.60
15845;BMP180;50807;52.436;13.346;2024-03-17T02:08:54;101714.00;;;8.60
15845;BMP180;50807;52.436;13.346;2024-03-17T02:09:25;101711.00;;;8.50
15845;BMP180;50807;52.436;13.346;2024-03-17T02:09:56;101699.00;;;8.50
15845;BMP180;50807;52.436;13.346;2024-03-17T02:10:28;101714.00;;;8.60
15845;BMP180;50807;52.436;13.346;2024-03-17T02:10:59;101712.00;;;8.50
15845;BMP180;50807;52.436;13.346;2024-03-17T02:11:31;101711.00;;;8.50
15845;BMP180;50807;52.436;13.346;2024-03-17T02:12:03;101714.00;;;8.50
15845;BMP180;50807;52.436;13.346;2024-03-17T02:12:34;101711.00;;;8.50
15845;BMP180;50807;52.436;13.346;2024-03-17T02:13:05;101715.00;;;8.50
15845;BMP180;50807;52.436;13.346;2024-03-17T02:13:38;101701.00;;;8.40
15845;BMP180;50807;52.436;13.346;2024-03-17T02:14:09;101717.00;;;8.40
15845;BMP180;50807;52.436;13.346;2024-03-17T02:14:41;101715.00;;;8.40
15845;BMP180;50807;52.436;13.346;2024-03-17T02:15:12;101713.00;;;8.50
15845;BMP180;50807;52.436;13.346;2024-03-17T02:15:44;101715.00;;;8.50
15845;BMP180;50807;52.436;13.346;2024-03-17T02:16:15;101713.00;;;8.60
15845;BMP180;50807;52.436;13.346;2024-03-17T02:16:47;101691.00;;;8.60
15845;BMP180;50807;52.436;13.346;2024-03-17T02:17:18;101712.00;;;8.50
15845;BMP180;50807;52.436;13.346;2024-03-17T02:17:49;101707.00;;;8.50
15845;BMP180;50807;52.436;13.346;2024-03-17T02:18:20;101714.00;;;8.40
15845;BMP180;50807;52.436;13.346;2024-03-17T02:18:54;101712.00;;;8.50
15845;BMP180;50807;52.436;13.346;2024-03-17T02:19:25;101716.00;;;8.40
15845;BMP180;50807;52.436;13.346;2024-03-17T02:19:57;101716.00;;;8.50
15845;BMP180;50807;52.436;13.346;2024-03-17T02:20:28;101713.00;;;8.50
15845;BMP180;50807;52.436;13.346;2024-03-17T02:21:14;101717.00;;;8.30
15845;BMP180;50807;52.436;13.346;2024-03-17T02:21:46;101714.00;;;8.40
15845;BMP180;50807;52.436;13.346;2024-03-17T02:22:18;101713.00;;;8.30
15845;BMP180;50807;52.436;13.346;2024-03-17T02:22:48;101714.00;;;8.40
15845;BMP180;50807;52.436;13.346;2024-03-17T02:23:20;101717.00;;;8.50
15845;BMP180;50807;52.436;13.346;2024-03-17T02:23:51;101715.00;;;8.50
15845;BMP180;50807;52.436;13.346;2024-03-17T02:24:22;101714.00;;;8.50
15845;BMP180;50807;52.436;13.346;2024-03-17T02:24:53;101705.00;;;8.50
15845;BMP180;50807;52.436;13.346;2024-03-17T02:25:24;101711.00;;;8.40
15845;BMP180;50807;52.436;13.346;2024-03-17T02:25:55;101718.00;;;8.50
15845;BMP180;50807;52.436;13.346;2024-03-17T02:26:28;101711.00;;;8.40
15845;BMP180;50807;52.436;13.346;2024-03-17T02:26:58;101714.00;;;8.40
15845;BMP180;50807;52.436;13.346;2024-03-17T02:27:29;101717.00;;;8.50
15845;BMP180;50807;52.436;13.346;2024-03-17T02:28:01;101711.00;;;8.50
15845;BMP180;50807;52.436;13.346;2024-03-17T02:28:39;101720.00;;;8.40
15845;BMP180;50807;52.436;13.346;2024-03-17T02:29:09;101720.00;;;8.50
15845;BMP180;50807;52.436;13.346;2024-03-17T02:29:41;101709.00;;;8.50
15845;BMP180;50807;52.436;13.346;2024-03-17T02:30:12;101728.00;;;8.30
15845;BMP180;50807;52.436;13.346;2024-03-17T02:30:43;101714.00;;;8.40
15845;BMP180;50807;52.436;13.346;2024-03-17T02:31:15;101720.00;;;8.30
15845;BMP180;50807;52.436;13.346;2024-03-17T02:31:46;101724.00;;;8.40
15845;BMP180;50807;52.436;13.346;2024-03-17T02:32:17;101721.00;;;8.40
15845;BMP180;50807;52.436;13.346;2024-03-17T02:32:52;101722.00;;;8.30
15845;BMP180;50807;52.436;13.346;2024-03-17T02:33:23;101723.00;;;8.40
15845;BMP180;50807;52.436;13.346;2024-03-17T02:33:53;101725.00;;;8.30
15845;BMP180;50807;52.436;13.346;2024-03-17T02:34:24;101712.00;;;8.30
15845;BMP180;50807;52.436;13.346;2024-03-17T02:34:55;101715.00;;;8.40
15845;BMP180;50807;52.436;13.346;2024-03-17T02:35:27;101714.00;;;8.30
15845;BMP180;50807;52.436;13.346;2024-03-17T02:35:59;101711.00;;;8.40
15845;BMP180;50807;52.436;13.346;2024-03-17T02:36:30;101721.00;;;8.40
15845;BMP180;50807;52.436;13.346;2024-03-17T02:37:01;101706.00;;;8.40
15845;BMP180;50807;52.436;13.346;2024-03-17T02:37:34;101716.00;;;8.30
15845;BMP180;50807;52.436;13.346;2024-03-17T02:38:05;101706.00;;;8.20
15845;BMP180;50807;52.436;13.346;2024-03-17T02:38:39;101710.00;;;8.30
15845;BMP180;50807;52.436;13.346;2024-03-17T02:39:29;101713.00;;;8.30
15845;BMP180;50807;52.436;13.346;2024-03-17T02:40:06;101716.00;;;8.20
15845;BMP180;50807;52.436;13.346;2024-03-17T02:40:38;101707.00;;;8.10
15845;BMP180;50807;52.436;13.346;2024-03-17T02:41:09;101719.00;;;8.30
15845;BMP180;50807;52.436;13.346;2024-03-17T02:41:42;101714.00;;;8.20
15845;BMP180;50807;52.436;13.346;2024-03-17T02:42:13;101719.00;;;8.30
15845;BMP180;50807;52.436;13.346;2024-03-17T02:42:44;101710.00;;;8.30
15845;BMP180;50807;52.436;13.346;2024-03-17T02:43:16;101719.00;;;8.30
15845;BMP180;50807;52.436;13.346;2024-03-17T02:43:47;101717.00;;;8.30
15845;BMP180;50807;52.436;13.346;2024-03-17T02:44:18;101716.00;;;8.20
15845;BMP180;50807;52.436;13.346;2024-03-17T02:44:49;101720.00;;;8.30
15845;BMP180;50807;52.436;13.346;2024-03-17T02:45:21;101714.00;;;8.30
15845;BMP180;50807;52.436;13.346;2024-03-17T02:45:52;101721.00;;;8.20
15845;BMP180;50807;52.436;13.346;2024-03-17T02:46:22;101720.00;;;8.30
15845;BMP180;50807;52.436;13.346;2024-03-17T02:46:54;101723.00;;;8.30
15845;BMP180;50807;52.436;13.346;2024-03-17T02:47:26;101724.00;;;8.30
15845;BMP180;50807;52.436;13.346;2024-03-17T02:47:57;101721.00;;;8.30
15845;BMP180;50807;52.436;13.346;2024-03-17T02:48:28;101714.00;;;8.30
15845;BMP180;50807;52.436;13.346;2024-03-17T02:48:58;101726.00;;;8.20
15845;BMP180;50807;52.436;13.346;2024-03-17T02:49:31;101723.00;;;8.30
15845;BMP180;50807;52.436;13.346;2024-03-17T02:50:07;101703.00;;;8.30
15845;BMP180;50807;52.436;13.346;2024-03-17T02:50:39;101711.00;;;8.10
15845;BMP180;50807;52.436;13.346;2024-03-17T02:51:11;101715.00;;;8.20
15845;BMP180;50807;52.436;13.346;2024-03-17T02:51:43;101717.00;;;8.10
15845;BMP180;50807;52.436;13.346;2024-03-17T02:52:14;101717.00;;;8.20
15845;BMP180;50807;52.436;13.346;2024-03-17T02:52:46;101712.00;;;8.10
15845;BMP180;50807;52.436;13.346;2024-03-17T02:53:18;101721.00;;;8.30
15845;BMP180;50807;52.436;13.346;2024-03-17T02:53:50;101714.00;;;8.20
15845;BMP180;50807;52.436;13.346;2024-03-17T02:54:22;101718.00;;;8.30
15845;BMP180;50807;52.436;13.346;2024-03-17T02:54:53;101713.00;;;8.30
15845;BMP180;50807;52.436;13.346;2024-03-17T02:55:24;101705.00;;;8.20
15845;BMP180;50807;52.436;13.346;2024-03-17T02:55:56;101720.00;;;8.30
15845;BMP180;50807;52.436;13.346;2024-03-17T02:56:28;101721.00;;;8.10
15845;BMP180;50807;52.436;13.346;2024-03-17T02:56:58;101718.00;;;8.20
15845;BMP180;50807;52.436;13.346;2024-03-17T02:57:29;101717.00;;;8.20
15845;BMP180;50807;52.436;13.346;2024-03-17T02:58:03;101723.00;;;8.10
15845;BMP180;50807;52.436;13.346;2024-03-17T02:58:34;101721.00;;;8.20
15845;BMP180;50807;52.436;13.346;2024-03-17T02:59:05;101716.00;;;8.20